Flight Track Log - Related Links

Times and Time Zones

All times are in EDT time to prevent confusion due to time zone crossing. See the ASQ5685 flight status page for this flight to view local times or setup timezone preferences in your user account.

Time Position Orientation Groundspeed Altitude Reporting Facility
EDT Latitude Longitude Course Direction KTS MPH feet Rate Location/Type
Mon 09:28:30 AM 33.6286 -84.4853 245° Southwest 406 467 2,700  Level Atlanta Center
Mon 09:29:03 AM 33.6167 -84.5167 245° Southwest 223 257 3,600 1,806 Climbing Atlanta TRACON
Mon 09:30:03 AM 33.5667 -84.5833 228° Southwest 271 312 5,500 2,105 Climbing Atlanta TRACON
Mon 09:30:57 AM 33.5000 -84.5833 180° South 284 327 7,600 2,138 Climbing Atlanta TRACON
Mon 09:31:30 AM 33.4633 -84.5517 144° Southeast 317 365 8,600 1,613 Climbing Atlanta Center
Mon 09:32:30 AM 33.4575 -84.4497 94° East 301 346 10,100 1,400 Climbing Atlanta Center
Mon 09:33:30 AM 33.4558 -84.3350 91° East 326 375 11,400 1,300 Climbing Atlanta Center
Mon 09:34:30 AM 33.5061 -84.2481 55° Northeast 323 372 12,700 1,100 Climbing Atlanta Center
Mon 09:35:30 AM 33.5814 -84.1958 30° Northeast 301 346 13,600 1,000 Climbing Atlanta Center
Mon 09:36:30 AM 33.6711 -84.1336 30° Northeast 346 398 14,700 1,050 Climbing Atlanta Center
Mon 09:37:30 AM 33.7547 -84.0539 38° Northeast 377 434 15,700 1,200 Climbing Atlanta Center
Mon 09:38:30 AM 33.8131 -83.9414 58° Northeast 376 433 17,100 1,100 Climbing Atlanta Center
Mon 09:39:30 AM 33.8714 -83.8286 58° Northeast 386 444 17,900 650 Climbing Atlanta Center
Mon 09:40:30 AM 33.9317 -83.7108 58° Northeast 406 467 18,400 600 Climbing Atlanta Center
Mon 09:41:30 AM 34.0000 -83.6003 53° Northeast 412 474 19,100 800 Climbing Atlanta Center
Mon 09:42:30 AM 34.0728 -83.4869 52° Northeast 417 480 20,000 800 Climbing Atlanta Center
Mon 09:43:30 AM 34.1411 -83.3811 52° Northeast 417 480 20,700 650 Climbing Atlanta Center
Mon 09:44:30 AM 34.2133 -83.2600 54° Northeast 417 480 21,300 550 Climbing Atlanta Center
Mon 09:45:30 AM 34.2836 -83.1514 52° Northeast 412 474 21,800 550 Climbing Atlanta Center
Mon 09:46:30 AM 34.3494 -83.0400 54° Northeast 419 482 22,400 550 Climbing Atlanta Center
Mon 09:47:30 AM 34.4194 -82.9283 53° Northeast 414 476 22,900 500 Climbing Atlanta Center
Mon 09:48:30 AM 34.4872 -82.8167 54° Northeast 414 476 23,400 500 Climbing Atlanta Center
Mon 09:49:30 AM 34.5572 -82.7044 53° Northeast 414 476 23,900 500 Climbing Atlanta Center
Mon 09:50:30 AM 34.6269 -82.5922 53° Northeast 412 474 24,400 450 Climbing Atlanta Center
Mon 09:51:30 AM 34.6925 -82.4928 51° Northeast 412 474 24,800 450 Climbing Atlanta Center
Mon 09:52:30 AM 34.7597 -82.3778 55° Northeast 412 474 25,300 550 Climbing Atlanta Center
Mon 09:53:30 AM 34.8292 -82.2675 52° Northeast 419 482 25,900 550 Climbing Atlanta Center
Mon 09:54:30 AM 34.9006 -82.1494 54° Northeast 419 482 26,400 2,550 Climbing Atlanta Center
Mon 09:55:30 AM 34.9797 -82.0208 53° Northeast 414 476 31,000 500 Climbing Atlanta Center
Mon 09:56:30 AM 35.0489 -81.9050 54° Northeast 422 486 27,400 -1,550 Descending Atlanta Center
Mon 09:57:30 AM 35.1072 -81.7867 59° Northeast 431 496 27,900 1,800 Climbing Atlanta Center
Mon 09:58:30 AM 35.1778 -81.6553 57° Northeast 431 496 31,000 500 Climbing Atlanta Center
Mon 09:59:30 AM 35.2439 -81.5286 57° Northeast 426 490 28,900 -750 Descending Atlanta Center
Mon 10:00:30 AM 35.3103 -81.4072 56° Northeast 426 490 29,500 550 Climbing Atlanta Center
Mon 10:01:30 AM 35.3722 -81.2828 59° Northeast 426 490 30,000 500 Climbing Atlanta Center
Mon 10:02:30 AM 35.4361 -81.1583 58° Northeast 426 490 30,500 350 Climbing Atlanta Center
Mon 10:03:30 AM 35.5019 -81.0311 58° Northeast 432 497 30,700 -150 Climbing Atlanta Center
Mon 10:04:30 AM 35.5697 -80.9036 57° Northeast 443 510 30,200 -350 Descending Atlanta Center
Mon 10:05:30 AM 35.6392 -80.7681 58° Northeast 456 525 30,000 -100 Descending Atlanta Center
Mon 10:06:30 AM 35.7086 -80.6347 57° Northeast 462 532 30,000  Level Atlanta Center
Mon 10:07:30 AM 35.7778 -80.5014 57° Northeast 462 532 30,000 -100 Level Atlanta Center
Mon 10:08:30 AM 35.8467 -80.3625 59° Northeast 470 541 29,800 -350 Descending Atlanta Center
Mon 10:09:30 AM 35.9175 -80.2233 58° Northeast 475 547 29,300 -400 Descending Atlanta Center
Mon 10:10:30 AM 35.9883 -80.0817 58° Northeast 480 552 29,000 -110 Descending Atlanta Center
Mon 10:12:14 AM 36.1178 -79.8500 55° Northeast 486 559 29,000  Level Washington Center
Mon 10:13:12 AM 36.1892 -79.7228 55° Northeast 492 566 29,000 -151 Level Washington Center
Mon 10:14:13 AM 36.2756 -79.5725 54° Northeast 492 566 28,700 -397 Descending Washington Center
Mon 10:15:13 AM 36.3553 -79.4347 54° Northeast 492 566 28,200 -496 Descending Washington Center
Mon 10:16:14 AM 36.4261 -79.3014 57° Northeast 497 572 27,700 -504 Descending Washington Center
Mon 10:17:12 AM 36.5078 -79.1581 55° Northeast 502 578 27,200 -504 Descending Washington Center
Mon 10:18:13 AM 36.5956 -79.0069 54° Northeast 497 572 26,700 -496 Descending Washington Center
Mon 10:19:13 AM 36.6706 -78.8625 57° Northeast 489 563 26,200 -850 Descending Washington Center
Mon 10:20:13 AM 36.7472 -78.7233 55° Northeast 489 563 25,000 -595 Descending Washington Center
Mon 10:21:14 AM 36.8239 -78.5811 56° Northeast 489 563 25,000  Level Washington Center
Mon 10:22:12 AM 36.9003 -78.4436 55° Northeast 489 563 25,000 -454 Level Washington Center
Mon 10:23:13 AM 36.9986 -78.3511 37° Northeast 475 547 24,100 -893 Descending Washington Center
Mon 10:24:13 AM 37.1172 -78.2642 30° Northeast 480 552 23,200 -942 Descending Washington Center
Mon 10:25:14 AM 37.2339 -78.1744 31° Northeast 485 558 22,200 -595 Descending Washington Center
Mon 10:26:14 AM 37.3592 -78.0792 31° Northeast 482 555 22,000 -100 Descending Washington Center
Mon 10:27:14 AM 37.4714 -77.9939 31° Northeast 477 549 22,000 -504 Level Washington Center
Mon 10:28:13 AM 37.5858 -77.9058 31° Northeast 477 549 21,000 -1,650 Descending Washington Center
Mon 10:29:14 AM 37.6958 -77.8225 31° Northeast 477 549 18,700 -2,182 Descending Washington Center
Mon 10:30:14 AM 37.7972 -77.7442 31° Northeast 455 524 16,600 -2,237 Descending Washington Center
Mon 10:31:12 AM 37.8947 -77.6681 32° Northeast 433 498 14,300 -2,319 Descending Washington Center
Mon 10:32:13 AM 37.9917 -77.5942 31° Northeast 409 471 12,000 -2,066 Descending Washington Center
Mon 10:33:14 AM 38.0764 -77.5306 31° Northeast 396 456 10,100 -992 Descending Washington Center
Mon 10:34:14 AM 38.1544 -77.4692 32° Northeast 363 418 10,000 -50 Descending Washington Center
Mon 10:35:14 AM 38.2325 -77.4156 28° Northeast 335 386 10,000 -559 Level Washington Center
Mon 10:36:12 AM 38.3081 -77.3725 24° Northeast 310 357 8,900 -1,109 Descending Washington Center
Mon 10:37:13 AM 38.3897 -77.3558 North 294 338 7,800 -942 Descending Washington Center
Mon 10:38:13 AM 38.4600 -77.3919 338° Northwest 265 305 7,000 -1,100 Descending Washington Center
Mon 10:39:13 AM 38.5281 -77.4389 332° Northwest 265 305 5,600 -992 Descending Washington Center
Mon 10:40:14 AM 38.5964 -77.4697 341° North 265 305 5,000 -277 Descending Washington Center
Mon 10:41:23 AM 38.7000 -77.4667 North 270 311 5,000 -605 Level Potomac TRACON
Mon 10:42:23 AM 38.7667 -77.4667 360° North 254 292 3,700 -1,250 Descending Potomac TRACON
Mon 10:43:23 AM 38.8333 -77.4667 360° North 215 247 2,500 -1,100 Descending Potomac TRACON
Mon 10:44:23 AM 38.8833 -77.4667 360° North 171 197 1,500 -895 Descending Potomac TRACON
Mon 10:45:17 AM 38.9167 -77.4667 360° North 142 163 800 -778 Descending Potomac TRACON
Mon 10:47:00 AM 38.9333 -77.4500 North  Level FlightAware Approximate

Login

Don't have an account? Register now (free) for customized features, flight alerts, and more!